KMTC/MTC METAR and TAF weather

Enter ICAO airport designator
Station Type Date Time Source
KMTC METAR 2019/06/27 02:56 UTC NOAA

KMTC 270256Z 00000KT 12SM SCT250 21/16 A3009 RMK AO2A SLP191 T02090161 53015 $


Station Type Date Time Source
KMTC Decoded METAR 2019/06/27 02:56 UTC NOAA

Selfridge Air National Guard Base, MI, United States (KMTC) 42-37N 082-50W
Jun 26, 2019 - 10:56 PM EDT / 2019.06.27 0256 UTC
Wind: Calm:0
Visibility: 12 mile(s):0
Sky conditions: partly cloudy
Temperature: 69.6 F (20.9 C)
Dew Point: 61.0 F (16.1 C)
Relative Humidity: 74%
Pressure (altimeter): 30.09 in. Hg (1018 hPa)
Pressure tendency: 0.04 inches (1.5 hPa) higher than three hours ago
ob: KMTC 270256Z 00000KT 12SM SCT250 21/16 A3009 RMK AO2A SLP191 T02090161 53015
cycle: 3

Station Type Date Time Source
KMTC TAF 2019/06/27 01:22 UTC NOAA

TAF KMTC 270100Z 2701/2807 VRB05KT 9999 FEW050 FEW250 QNH3004INS WND 18006KT AFT 2712 TX28/2720Z TN19/2708Z LAST NO
AMDS AFT 2703 NEXT 2709

Example: see airport list